createdAt,value
2023-05-12T00:01:45.237Z,18.73
2023-05-12T00:04:12.510Z,17.17
2023-05-12T00:06:39.546Z,18.55
2023-05-12T00:09:06.573Z,16.20
2023-05-12T00:11:33.592Z,18.35
2023-05-12T00:14:00.676Z,18.38
2023-05-12T00:16:27.804Z,21.83
2023-05-12T00:18:55.092Z,18.85
2023-05-12T00:21:22.088Z,17.30
2023-05-12T00:23:49.009Z,18.95
2023-05-12T00:26:17.469Z,19.17
2023-05-12T00:28:47.513Z,18.83
2023-05-12T00:31:15.079Z,18.13
2023-05-12T00:33:42.551Z,18.92
2023-05-12T00:36:09.667Z,15.90
2023-05-12T00:38:37.386Z,18.05
2023-05-12T00:41:04.727Z,18.48
2023-05-12T00:43:31.935Z,18.30
2023-05-12T00:46:00.976Z,18.35
2023-05-12T00:48:28.194Z,20.60
2023-05-12T00:50:56.700Z,18.85
2023-05-12T00:53:24.780Z,19.65
2023-05-12T00:55:53.591Z,17.05
2023-05-12T00:58:20.673Z,18.67
2023-05-12T01:00:47.668Z,18.75
2023-05-12T01:03:14.843Z,19.33
2023-05-12T01:06:04.089Z,15.15
2023-05-12T01:08:32.742Z,16.15
2023-05-12T01:11:00.290Z,15.35
2023-05-12T01:13:28.004Z,15.50
2023-05-12T01:15:58.913Z,18.33
2023-05-12T01:18:28.622Z,15.45
2023-05-12T01:20:57.533Z,14.70
2023-05-12T01:23:36.006Z,12.43
2023-05-12T01:26:07.822Z,12.40
2023-05-12T01:28:37.714Z,14.20
2023-05-12T01:31:08.386Z,13.20
2023-05-12T01:33:38.197Z,12.82
2023-05-12T01:36:06.078Z,16.42
2023-05-12T01:38:33.794Z,14.43
2023-05-12T01:41:00.904Z,16.77
2023-05-12T01:43:27.923Z,13.35
2023-05-12T01:45:54.977Z,13.88
2023-05-12T01:48:22.033Z,11.10
2023-05-12T01:50:49.587Z,12.02
2023-05-12T01:53:20.701Z,13.48
2023-05-12T01:55:47.729Z,14.77
2023-05-12T01:58:14.841Z,14.95
2023-05-12T02:00:41.901Z,11.80
2023-05-12T02:03:15.251Z,13.85
2023-05-12T02:05:42.383Z,10.85
2023-05-12T02:08:09.540Z,12.35
2023-05-12T02:10:36.817Z,11.48
2023-05-12T02:13:04.355Z,10.60
2023-05-12T02:15:32.988Z,9.80
2023-05-12T02:18:00.214Z,10.18
2023-05-12T02:20:29.348Z,11.10
2023-05-12T02:22:56.415Z,12.63
2023-05-12T02:25:23.418Z,12.63
2023-05-12T02:27:50.756Z,15.45
2023-05-12T02:30:18.587Z,19.83
2023-05-12T02:32:46.517Z,17.45
2023-05-12T02:35:13.848Z,22.25
2023-05-12T02:37:40.852Z,22.35
2023-05-12T02:40:08.842Z,24.50
2023-05-12T02:42:38.344Z,24.90
2023-05-12T02:45:06.293Z,27.70
2023-05-12T02:47:34.116Z,24.90
2023-05-12T02:50:01.185Z,25.35
2023-05-12T02:52:28.334Z,29.83
2023-05-12T02:54:56.209Z,32.10
2023-05-12T02:57:23.403Z,33.22
2023-05-12T02:59:50.377Z,31.10
2023-05-12T03:02:17.503Z,26.60
2023-05-12T03:04:44.636Z,33.67
2023-05-12T03:07:11.664Z,36.50
2023-05-12T03:09:38.799Z,44.55
2023-05-12T03:12:06.397Z,38.67
2023-05-12T03:14:33.560Z,50.05
2023-05-12T03:17:00.686Z,43.70
2023-05-12T03:19:27.950Z,53.38
2023-05-12T03:21:55.368Z,46.55
2023-05-12T03:24:22.616Z,40.95
2023-05-12T03:26:49.615Z,53.03
2023-05-12T03:29:16.558Z,48.47
2023-05-12T03:31:43.933Z,59.00
2023-05-12T03:34:11.135Z,56.80
2023-05-12T03:36:38.194Z,53.88
2023-05-12T03:39:05.202Z,60.65
2023-05-12T03:41:33.486Z,50.13
2023-05-12T03:44:00.685Z,49.67
2023-05-12T03:46:27.883Z,55.47
2023-05-12T03:48:55.275Z,53.53
2023-05-12T03:51:22.421Z,54.75
2023-05-12T03:53:52.491Z,54.80
2023-05-12T03:56:20.278Z,54.00
2023-05-12T03:58:47.990Z,61.13
2023-05-12T04:01:16.560Z,56.00
2023-05-12T04:03:43.661Z,61.35
2023-05-12T04:06:10.680Z,65.40
2023-05-12T04:08:39.040Z,55.50
2023-05-12T04:11:09.428Z,58.30
2023-05-12T04:13:36.564Z,54.42
2023-05-12T04:16:03.989Z,60.15
2023-05-12T04:18:31.060Z,56.03
2023-05-12T04:20:58.060Z,61.92
2023-05-12T04:23:25.546Z,60.47
2023-05-12T04:25:52.554Z,55.13
2023-05-12T04:28:19.698Z,52.10
2023-05-12T04:30:47.674Z,52.95
2023-05-12T04:33:14.747Z,49.03
2023-05-12T04:35:42.282Z,43.13
2023-05-12T04:38:11.718Z,46.20
2023-05-12T04:40:38.776Z,51.40
2023-05-12T04:43:06.053Z,45.50
2023-05-12T04:45:33.251Z,43.80
2023-05-12T04:48:00.437Z,43.45
2023-05-12T04:50:27.489Z,41.67
2023-05-12T04:52:54.454Z,43.08
2023-05-12T04:55:22.126Z,49.65
2023-05-12T04:57:49.774Z,44.60
2023-05-12T05:00:16.933Z,41.33
2023-05-12T05:02:45.708Z,45.17
2023-05-12T05:05:12.784Z,41.85
2023-05-12T05:07:40.280Z,41.90
2023-05-12T05:10:08.095Z,38.38
2023-05-12T05:12:35.105Z,28.95
2023-05-12T05:15:02.118Z,33.95
2023-05-12T05:17:29.422Z,32.42
2023-05-12T05:19:59.353Z,30.90
2023-05-12T05:22:30.030Z,29.30
2023-05-12T05:24:57.028Z,27.92
2023-05-12T05:27:24.103Z,28.67
2023-05-12T05:29:51.589Z,30.17
2023-05-12T05:32:18.736Z,33.03
2023-05-12T05:34:45.809Z,38.20
2023-05-12T05:37:12.988Z,34.28
2023-05-12T05:39:40.269Z,35.75
2023-05-12T05:42:07.471Z,34.45
2023-05-12T05:44:35.898Z,32.35
2023-05-12T05:47:05.048Z,32.08
2023-05-12T05:49:32.269Z,35.40
2023-05-12T05:52:01.023Z,34.47
2023-05-12T05:54:28.691Z,32.08
2023-05-12T05:56:56.024Z,34.63
2023-05-12T05:59:24.432Z,33.85
2023-05-12T06:01:51.948Z,31.38
2023-05-12T06:04:19.228Z,30.70
2023-05-12T06:06:46.983Z,30.90
2023-05-12T06:09:15.519Z,29.02
2023-05-12T06:11:42.555Z,27.05
2023-05-12T06:14:09.581Z,30.50
2023-05-12T06:16:36.596Z,24.45
2023-05-12T06:19:03.668Z,26.13
2023-05-12T06:21:31.436Z,26.50
2023-05-12T06:23:58.378Z,24.35
2023-05-12T06:26:25.550Z,25.13
2023-05-12T06:28:52.503Z,24.75
2023-05-12T06:31:19.603Z,20.75
2023-05-12T06:33:48.051Z,17.60
2023-05-12T06:36:15.120Z,17.45
2023-05-12T06:38:42.128Z,15.40
2023-05-12T06:41:09.165Z,14.65
2023-05-12T06:43:36.101Z,14.80
2023-05-12T06:46:04.048Z,16.65
2023-05-12T06:48:31.089Z,12.98
2023-05-12T06:50:58.068Z,12.90
2023-05-12T06:53:30.387Z,13.65
2023-05-12T06:55:57.964Z,12.07
2023-05-12T06:58:25.073Z,11.13
2023-05-12T07:00:52.106Z,9.77
2023-05-12T07:03:19.315Z,8.20
2023-05-12T07:05:46.372Z,9.18
2023-05-12T07:08:13.475Z,8.45
2023-05-12T07:10:40.444Z,6.53
2023-05-12T07:13:07.789Z,6.75
2023-05-12T07:15:35.048Z,7.20
2023-05-12T07:18:02.234Z,6.13
2023-05-12T07:20:29.257Z,5.43
2023-05-12T07:22:56.523Z,4.53
2023-05-12T07:25:23.756Z,6.47
2023-05-12T07:27:51.017Z,5.32
2023-05-12T07:30:18.147Z,5.30
2023-05-12T07:32:45.292Z,4.70
2023-05-12T07:35:13.036Z,6.00
2023-05-12T07:37:41.429Z,6.28
2023-05-12T07:40:09.051Z,5.22
2023-05-12T07:42:36.200Z,4.93
2023-05-12T07:45:03.888Z,5.85
2023-05-12T07:47:30.923Z,4.38
2023-05-12T07:49:58.130Z,4.38
2023-05-12T07:52:25.077Z,5.78
2023-05-12T07:54:52.185Z,6.85
2023-05-12T07:57:19.192Z,5.95
2023-05-12T07:59:46.122Z,7.22
2023-05-12T08:02:13.144Z,5.90
2023-05-12T08:04:41.500Z,5.78
2023-05-12T08:07:09.657Z,6.55
2023-05-12T08:09:36.589Z,4.40
2023-05-12T08:12:03.778Z,4.95
2023-05-12T08:14:30.755Z,4.32
2023-05-12T08:16:57.721Z,4.65
2023-05-12T08:19:24.745Z,5.53
2023-05-12T08:21:51.754Z,4.25
2023-05-12T08:24:18.827Z,5.03
2023-05-12T08:26:45.767Z,4.20
2023-05-12T08:29:13.014Z,4.03
2023-05-12T08:31:40.119Z,5.22
2023-05-12T08:34:10.683Z,4.90
2023-05-12T08:36:41.344Z,5.15
2023-05-12T08:39:11.613Z,3.40
2023-05-12T08:42:18.799Z,2.83
2023-05-12T08:44:47.773Z,4.80
2023-05-12T08:47:18.596Z,3.05
2023-05-12T08:49:55.571Z,7.22
2023-05-12T08:52:23.726Z,4.05
2023-05-12T08:54:55.980Z,3.35
2023-05-12T08:57:25.336Z,3.78
2023-05-12T08:59:55.989Z,3.58
2023-05-12T09:02:24.533Z,3.60
2023-05-12T09:04:54.914Z,2.53
2023-05-12T09:07:26.696Z,2.72
2023-05-12T09:09:58.635Z,4.32
2023-05-12T09:12:34.225Z,5.70
2023-05-12T09:15:10.490Z,3.72
2023-05-12T09:17:38.027Z,2.50
2023-05-12T09:20:09.816Z,2.17
2023-05-12T09:22:40.164Z,5.90
2023-05-12T09:25:21.769Z,4.07
2023-05-12T09:27:54.998Z,3.05
2023-05-12T09:30:35.550Z,1.70
2023-05-12T09:33:08.008Z,2.30
2023-05-12T09:35:44.371Z,2.15
2023-05-12T09:38:14.233Z,3.05
2023-05-12T09:40:41.314Z,3.15
2023-05-12T09:43:08.639Z,2.72
2023-05-12T09:45:38.875Z,2.53
2023-05-12T09:48:11.479Z,2.80
2023-05-12T09:50:51.117Z,3.35
2023-05-12T09:53:20.501Z,2.13
2023-05-12T09:55:48.625Z,3.85
2023-05-12T09:58:19.248Z,2.88
2023-05-12T10:03:18.647Z,3.35
2023-05-12T10:05:57.783Z,1.65
2023-05-12T10:08:34.042Z,3.70
2023-05-12T10:11:04.848Z,2.63
2023-05-12T10:13:33.857Z,3.05
2023-05-12T10:16:01.571Z,5.10
2023-05-12T10:18:29.379Z,1.63
2023-05-12T10:20:58.016Z,3.63
2023-05-12T10:23:27.142Z,2.92
2023-05-12T10:26:01.733Z,2.30
2023-05-12T10:28:29.618Z,4.05
2023-05-12T10:30:58.933Z,2.53
2023-05-12T10:33:27.552Z,1.55
2023-05-12T10:35:54.840Z,3.75
2023-05-12T10:38:22.251Z,2.28
2023-05-12T10:41:01.161Z,3.20
2023-05-12T10:43:38.433Z,2.90
2023-05-12T10:46:24.454Z,7.85
2023-05-12T10:49:04.244Z,2.90
2023-05-12T10:51:48.699Z,5.13
2023-05-12T10:54:25.980Z,3.72
2023-05-12T10:56:58.846Z,2.60
2023-05-12T10:59:27.471Z,5.40
2023-05-12T11:02:32.373Z,4.22
2023-05-12T11:05:12.925Z,3.22
2023-05-12T11:07:47.317Z,3.95
2023-05-12T11:10:15.290Z,2.70
2023-05-12T11:12:44.506Z,2.03
2023-05-12T11:15:12.407Z,4.25
2023-05-12T11:17:41.175Z,2.78
2023-05-12T11:20:12.089Z,3.58
2023-05-12T11:22:42.784Z,4.13
2023-05-12T11:25:12.193Z,8.95
2023-05-12T11:27:42.572Z,4.80
2023-05-12T11:30:11.204Z,2.05
2023-05-12T11:32:38.412Z,2.60
2023-05-12T11:35:18.104Z,4.78
2023-05-12T11:37:46.619Z,2.28
2023-05-12T11:40:19.196Z,2.58
2023-05-12T11:42:51.390Z,1.85
2023-05-12T11:45:30.049Z,3.85
2023-05-12T11:48:14.804Z,4.63
2023-05-12T11:50:47.604Z,2.67
2023-05-12T11:53:18.716Z,2.72
2023-05-12T11:55:54.938Z,4.03
2023-05-12T11:58:30.264Z,2.88
2023-05-12T12:01:10.043Z,2.47
2023-05-12T12:03:49.665Z,2.42
2023-05-12T12:06:18.210Z,2.25
2023-05-12T12:08:52.762Z,2.20
2023-05-12T12:11:28.298Z,2.10
2023-05-12T12:13:56.885Z,2.75
2023-05-12T12:16:29.863Z,3.47
2023-05-12T12:18:58.074Z,1.67
2023-05-12T12:21:25.691Z,2.17
2023-05-12T12:23:52.770Z,3.90
2023-05-12T12:26:21.500Z,2.10
2023-05-12T12:28:49.562Z,2.38
2023-05-12T12:31:17.276Z,2.63
2023-05-12T12:33:44.317Z,3.83
2023-05-12T12:36:11.405Z,2.10
2023-05-12T12:38:38.341Z,3.92
2023-05-12T12:41:07.741Z,2.38
2023-05-12T12:43:34.811Z,5.95
2023-05-12T12:46:01.915Z,2.42
2023-05-12T12:48:28.998Z,2.58
2023-05-12T12:50:56.456Z,2.08
2023-05-12T12:53:24.043Z,2.33
2023-05-12T12:55:51.127Z,2.67
2023-05-12T12:58:18.442Z,4.38
2023-05-12T13:00:45.569Z,2.65
2023-05-12T13:03:12.728Z,1.70
2023-05-12T13:05:39.857Z,2.95
2023-05-12T13:08:07.456Z,4.22
2023-05-12T13:10:35.523Z,2.50
2023-05-12T13:13:02.526Z,1.85
2023-05-12T13:15:32.167Z,3.20
2023-05-12T13:18:02.129Z,2.58
2023-05-12T13:20:29.436Z,1.70
2023-05-12T13:22:59.538Z,1.48
2023-05-12T13:25:26.523Z,2.35
2023-05-12T13:27:53.514Z,1.83
2023-05-12T13:30:22.589Z,2.75
2023-05-12T13:32:50.686Z,2.67
2023-05-12T13:35:18.101Z,3.05
2023-05-12T13:37:45.167Z,2.60
2023-05-12T13:40:12.683Z,3.08
2023-05-12T13:42:39.652Z,4.63
2023-05-12T13:45:09.173Z,2.63
2023-05-12T13:47:36.634Z,2.60
2023-05-12T13:50:04.940Z,2.85
2023-05-12T13:52:31.980Z,2.47
2023-05-12T13:54:59.016Z,1.90
2023-05-12T13:57:26.122Z,3.35
2023-05-12T13:59:54.892Z,2.92
2023-05-12T14:02:22.085Z,4.75
2023-05-12T14:04:49.125Z,4.50
2023-05-12T14:07:16.311Z,2.90
2023-05-12T14:09:43.312Z,2.97
2023-05-12T14:12:10.780Z,4.15
2023-05-12T14:14:37.781Z,2.58
2023-05-12T14:17:05.172Z,1.85
2023-05-12T14:19:32.256Z,2.45
2023-05-12T14:21:59.332Z,4.00
2023-05-12T14:24:26.353Z,3.13
2023-05-12T14:26:54.784Z,4.65
2023-05-12T14:29:21.863Z,2.40
2023-05-12T14:31:48.965Z,3.05
2023-05-12T14:34:16.090Z,3.28
2023-05-12T14:36:43.048Z,3.80
2023-05-12T14:39:10.045Z,3.55
2023-05-12T14:41:37.123Z,3.38
2023-05-12T14:44:04.479Z,3.58
2023-05-12T14:46:31.461Z,3.58
2023-05-12T14:48:58.389Z,4.00
2023-05-12T14:51:25.435Z,5.47
2023-05-12T14:53:52.420Z,4.60
2023-05-12T14:56:19.565Z,2.60
2023-05-12T14:58:46.579Z,2.90
2023-05-12T15:01:13.563Z,2.85
2023-05-12T15:03:40.526Z,4.18
2023-05-12T15:06:08.214Z,3.38
2023-05-12T15:08:35.529Z,3.30
2023-05-12T15:11:02.551Z,3.30
2023-05-12T15:13:29.706Z,3.30
2023-05-12T15:15:57.117Z,3.15
2023-05-12T15:18:24.295Z,3.13
2023-05-12T15:20:51.828Z,3.78
2023-05-12T15:23:18.884Z,5.18
2023-05-12T15:25:45.954Z,2.38
2023-05-12T15:28:13.018Z,6.20
2023-05-12T15:30:40.059Z,5.05
2023-05-12T15:33:07.195Z,3.95
2023-05-12T15:35:34.635Z,8.38
2023-05-12T15:38:01.578Z,10.40
2023-05-12T15:40:30.833Z,10.00
2023-05-12T15:42:58.324Z,7.03
2023-05-12T15:45:25.347Z,7.75
2023-05-12T15:47:52.307Z,8.00
2023-05-12T15:50:22.620Z,3.78
2023-05-12T15:52:50.186Z,5.78
2023-05-12T15:55:17.475Z,5.20
2023-05-12T15:57:44.674Z,4.30
2023-05-12T16:00:12.819Z,3.63
2023-05-12T16:02:45.612Z,7.85
2023-05-12T16:05:12.625Z,4.45
2023-05-12T16:07:39.793Z,3.40
2023-05-12T16:10:07.423Z,3.67
2023-05-12T16:12:36.281Z,4.18
2023-05-12T16:15:05.044Z,4.18
2023-05-12T16:17:32.101Z,4.45
2023-05-12T16:19:59.246Z,7.53
2023-05-12T16:22:26.247Z,3.33
2023-05-12T16:24:54.592Z,4.53
2023-05-12T16:27:21.580Z,2.42
2023-05-12T16:29:50.577Z,3.40
2023-05-12T16:32:17.770Z,2.75
2023-05-12T16:34:45.119Z,2.95
2023-05-12T16:37:12.161Z,3.45
2023-05-12T16:39:39.146Z,3.40
2023-05-12T16:42:06.618Z,3.00
2023-05-12T16:44:33.650Z,3.35
2023-05-12T16:47:00.716Z,4.63
2023-05-12T16:49:27.670Z,3.67
2023-05-12T16:51:54.646Z,4.60
2023-05-12T16:54:22.001Z,3.85
2023-05-12T16:56:49.040Z,4.30
2023-05-12T16:59:16.017Z,5.88
2023-05-12T17:01:43.193Z,6.45
2023-05-12T17:04:12.369Z,4.03
2023-05-12T17:06:39.334Z,4.63
2023-05-12T17:09:06.420Z,5.57
2023-05-12T17:11:33.746Z,3.95
2023-05-12T17:14:00.950Z,5.05
2023-05-12T17:16:28.582Z,3.90
2023-05-12T17:21:26.512Z,5.05
2023-05-12T17:23:54.158Z,3.45
2023-05-12T17:26:21.220Z,4.32
2023-05-12T17:28:48.262Z,4.97
2023-05-12T17:31:15.336Z,5.05
2023-05-12T17:33:42.508Z,4.05
2023-05-12T17:36:12.965Z,3.95
2023-05-12T17:38:41.216Z,5.35
2023-05-12T17:41:08.442Z,6.93
2023-05-12T17:43:35.672Z,6.35
2023-05-12T17:46:04.706Z,5.60
2023-05-12T17:48:33.260Z,8.80
2023-05-12T17:51:03.130Z,4.88
2023-05-12T17:53:31.724Z,3.80
2023-05-12T17:55:59.921Z,8.93
2023-05-12T17:58:27.090Z,4.70
2023-05-12T18:00:54.146Z,5.57
2023-05-12T18:03:24.305Z,4.85
2023-05-12T18:05:54.236Z,4.40
2023-05-12T18:08:22.650Z,6.93
2023-05-12T18:10:49.765Z,6.15
2023-05-12T18:13:16.901Z,4.22
2023-05-12T18:15:43.989Z,3.70
2023-05-12T18:18:11.225Z,6.45
2023-05-12T18:20:38.437Z,5.32
2023-05-12T18:23:05.506Z,5.57
2023-05-12T18:25:32.591Z,4.55
2023-05-12T18:27:59.550Z,6.43
2023-05-12T18:30:26.498Z,4.70
2023-05-12T18:32:53.748Z,5.80
2023-05-12T18:35:20.966Z,5.03
2023-05-12T18:37:48.174Z,6.80
2023-05-12T18:40:15.353Z,6.50
2023-05-12T18:42:42.632Z,6.90
2023-05-12T18:45:10.240Z,5.15
2023-05-12T18:47:37.682Z,8.00
2023-05-12T18:50:05.784Z,6.57
2023-05-12T18:52:32.825Z,6.53
2023-05-12T18:54:59.962Z,5.85
2023-05-12T18:57:26.935Z,7.50
2023-05-12T18:59:54.196Z,4.10
2023-05-12T19:02:21.166Z,4.75
2023-05-12T19:04:49.216Z,6.30
2023-05-12T19:07:16.926Z,5.53
2023-05-12T19:09:45.312Z,7.78
2023-05-12T19:12:12.341Z,6.45
2023-05-12T19:14:40.590Z,6.97
2023-05-12T19:17:07.787Z,6.13
2023-05-12T19:19:35.216Z,6.72
2023-05-12T19:22:04.073Z,7.18
2023-05-12T19:24:31.390Z,6.28
2023-05-12T19:26:58.518Z,6.43
2023-05-12T19:29:26.103Z,5.40
2023-05-12T19:31:53.308Z,7.55
2023-05-12T19:34:23.876Z,6.43
2023-05-12T19:36:54.204Z,5.20
2023-05-12T19:39:21.168Z,7.45
2023-05-12T19:41:48.136Z,4.97
2023-05-12T19:44:16.154Z,5.95
2023-05-12T19:46:46.974Z,6.20
2023-05-12T19:49:15.391Z,7.00
2023-05-12T19:51:42.360Z,4.60
2023-05-12T19:54:10.168Z,7.00
2023-05-12T19:56:37.417Z,5.55
2023-05-12T19:59:04.413Z,5.95
2023-05-12T20:01:32.028Z,7.93
2023-05-12T20:03:59.119Z,11.75
2023-05-12T20:06:26.148Z,5.40
2023-05-12T20:08:53.438Z,6.88
2023-05-12T20:11:20.464Z,6.78
2023-05-12T20:13:47.457Z,5.05
2023-05-12T20:16:14.440Z,6.20
2023-05-12T20:18:41.509Z,9.32
2023-05-12T20:21:08.480Z,4.78
2023-05-12T20:23:35.476Z,5.28
2023-05-12T20:26:02.449Z,7.13
2023-05-12T20:28:29.504Z,7.82
2023-05-12T20:30:56.751Z,6.18
2023-05-12T20:33:23.862Z,5.50
2023-05-12T20:35:50.863Z,5.45
2023-05-12T20:38:18.002Z,5.95
2023-05-12T20:40:45.273Z,6.22
2023-05-12T20:43:14.344Z,9.30
2023-05-12T20:45:41.617Z,6.43
2023-05-12T20:48:09.177Z,5.07
2023-05-12T20:50:36.332Z,6.00
2023-05-12T20:53:04.430Z,7.55
2023-05-12T20:55:34.271Z,8.30
2023-05-12T20:58:01.232Z,5.45
2023-05-12T21:00:28.229Z,7.53
2023-05-12T21:02:55.853Z,6.55
2023-05-12T21:05:23.119Z,6.32
2023-05-12T21:07:50.240Z,5.50
2023-05-12T21:10:17.416Z,6.57
2023-05-12T21:12:44.526Z,7.60
2023-05-12T21:15:11.726Z,6.35
2023-05-12T21:17:39.685Z,9.50
2023-05-12T21:20:10.137Z,5.32
2023-05-12T21:22:40.502Z,6.00
2023-05-12T21:25:08.082Z,5.20
2023-05-12T21:27:40.624Z,6.22
2023-05-12T21:30:09.958Z,6.90
2023-05-12T21:32:37.488Z,7.63
2023-05-12T21:35:05.799Z,8.25
2023-05-12T21:37:33.237Z,5.68
2023-05-12T21:40:00.269Z,6.20
2023-05-12T21:42:27.237Z,6.22
2023-05-12T21:44:54.269Z,5.70
2023-05-12T21:47:21.674Z,6.70
2023-05-12T21:49:55.009Z,5.13
2023-05-12T21:52:23.114Z,8.45
2023-05-12T21:54:50.079Z,8.20
2023-05-12T21:57:17.147Z,5.93
2023-05-12T21:59:44.910Z,5.78
2023-05-12T22:02:11.950Z,7.07
2023-05-12T22:04:39.010Z,5.43
2023-05-12T22:07:06.001Z,7.90
2023-05-12T22:09:32.985Z,8.35
2023-05-12T22:11:59.995Z,8.93
2023-05-12T22:14:26.981Z,6.70
2023-05-12T22:16:56.103Z,6.15
2023-05-12T22:19:28.940Z,7.28
2023-05-12T22:22:09.815Z,6.70
2023-05-12T22:24:36.922Z,7.30
2023-05-12T22:27:04.099Z,7.65
2023-05-12T22:29:31.104Z,6.03
2023-05-12T22:31:58.058Z,6.32
2023-05-12T22:34:25.163Z,8.40
2023-05-12T22:36:52.114Z,6.60
2023-05-12T22:39:19.777Z,7.28
2023-05-12T22:41:46.760Z,8.27
2023-05-12T22:44:13.758Z,7.88
2023-05-12T22:46:40.740Z,6.82
2023-05-12T22:49:07.744Z,7.88
2023-05-12T22:51:34.819Z,8.13
2023-05-12T22:54:01.902Z,9.40
2023-05-12T22:56:28.885Z,7.00
2023-05-12T22:58:55.995Z,8.43
2023-05-12T23:01:23.048Z,8.90
2023-05-12T23:03:50.399Z,7.65
2023-05-12T23:06:17.433Z,7.20
2023-05-12T23:08:44.450Z,7.95
2023-05-12T23:11:12.983Z,9.80
2023-05-12T23:13:40.150Z,8.02
2023-05-12T23:16:07.755Z,7.78
2023-05-12T23:18:34.778Z,8.10
2023-05-12T23:21:01.814Z,7.28
2023-05-12T23:23:28.863Z,7.78
2023-05-12T23:25:55.878Z,8.20
2023-05-12T23:28:22.943Z,10.25
2023-05-12T23:30:49.937Z,8.60
2023-05-12T23:33:17.229Z,11.50
2023-05-12T23:35:44.342Z,9.07
2023-05-12T23:38:11.356Z,10.30
2023-05-12T23:40:39.307Z,8.35
2023-05-12T23:43:06.845Z,8.75
2023-05-12T23:45:34.677Z,8.20
2023-05-12T23:48:01.881Z,8.35
2023-05-12T23:50:28.981Z,8.32
2023-05-12T23:52:56.575Z,7.28
2023-05-12T23:55:23.607Z,13.73
2023-05-12T23:57:50.593Z,7.55
